createdAt,value
2023-03-11T00:00:55.322Z,0.00
2023-03-11T00:01:55.374Z,0.00
2023-03-11T00:02:55.356Z,0.00
2023-03-11T00:03:55.350Z,0.00
2023-03-11T00:04:55.385Z,0.00
2023-03-11T00:05:55.370Z,0.00
2023-03-11T00:06:55.374Z,0.00
2023-03-11T00:07:55.388Z,0.00
2023-03-11T00:08:55.388Z,0.00
2023-03-11T00:09:55.395Z,0.00
2023-03-11T00:10:55.459Z,0.00
2023-03-11T00:11:55.419Z,0.00
2023-03-11T00:12:55.417Z,0.00
2023-03-11T00:13:55.425Z,0.00
2023-03-11T00:14:55.431Z,0.00
2023-03-11T00:15:55.443Z,0.00
2023-03-11T00:16:55.484Z,0.00
2023-03-11T00:17:55.459Z,0.00
2023-03-11T00:18:55.462Z,0.00
2023-03-11T00:19:55.473Z,0.00
2023-03-11T00:20:55.475Z,0.00
2023-03-11T00:21:55.489Z,0.00
2023-03-11T00:22:55.491Z,0.00
2023-03-11T00:23:55.502Z,0.00
2023-03-11T00:24:55.504Z,0.00
2023-03-11T00:25:55.514Z,0.00
2023-03-11T00:26:55.519Z,0.00
2023-03-11T00:27:55.528Z,0.00
2023-03-11T00:28:55.560Z,0.00
2023-03-11T00:29:55.539Z,0.00
2023-03-11T00:30:55.614Z,0.00
2023-03-11T00:31:55.556Z,0.00
2023-03-11T00:32:55.565Z,0.00
2023-03-11T00:33:55.568Z,0.00
2023-03-11T00:34:55.572Z,0.00
2023-03-11T00:35:55.607Z,0.00
2023-03-11T00:36:55.589Z,0.00
2023-03-11T00:37:55.608Z,0.00
2023-03-11T00:38:55.607Z,0.00
2023-03-11T00:39:55.609Z,0.00
2023-03-11T00:40:55.613Z,0.00
2023-03-11T00:41:55.620Z,0.00
2023-03-11T00:42:55.627Z,0.00
2023-03-11T00:43:55.642Z,0.00
2023-03-11T00:44:55.653Z,0.00
2023-03-11T00:45:55.681Z,0.00
2023-03-11T00:46:55.653Z,0.00
2023-03-11T00:47:55.659Z,0.00
2023-03-11T00:48:55.665Z,0.00
2023-03-11T00:49:55.672Z,0.00
2023-03-11T00:50:55.678Z,0.00
2023-03-11T00:51:55.688Z,0.00
2023-03-11T00:52:55.691Z,0.00
2023-03-11T00:53:55.699Z,0.00
2023-03-11T00:54:55.706Z,0.00
2023-03-11T00:55:55.712Z,0.00
2023-03-11T00:56:55.720Z,0.00
2023-03-11T00:57:55.726Z,0.00
2023-03-11T00:58:55.735Z,0.00
2023-03-11T00:59:55.738Z,0.00
2023-03-11T01:00:55.765Z,0.00
2023-03-11T01:01:55.759Z,0.00
2023-03-11T01:02:55.760Z,0.00
2023-03-11T01:03:55.768Z,0.00
2023-03-11T01:04:55.841Z,0.00
2023-03-11T01:05:55.780Z,0.00
2023-03-11T01:06:55.782Z,0.00
2023-03-11T01:07:55.793Z,0.00
2023-03-11T01:08:55.802Z,0.00
2023-03-11T01:09:55.806Z,0.00
2023-03-11T01:10:55.812Z,0.00
2023-03-11T01:11:55.821Z,0.00
2023-03-11T01:12:55.824Z,0.00
2023-03-11T01:13:55.832Z,0.00
2023-03-11T01:14:55.845Z,0.00
2023-03-11T01:15:55.889Z,0.00
2023-03-11T01:16:55.857Z,0.00
2023-03-11T01:17:55.877Z,0.00
2023-03-11T01:18:55.870Z,0.00
2023-03-11T01:19:55.889Z,0.00
2023-03-11T01:20:55.890Z,0.00
2023-03-11T01:21:55.881Z,0.00
2023-03-11T01:22:55.899Z,0.00
2023-03-11T01:23:55.912Z,0.00
2023-03-11T01:24:55.903Z,0.00
2023-03-11T01:25:55.925Z,0.00
2023-03-11T01:26:55.920Z,0.00
2023-03-11T01:27:55.945Z,0.00
2023-03-11T01:28:55.934Z,0.00
2023-03-11T01:29:55.939Z,0.00
2023-03-11T01:30:55.966Z,0.00
2023-03-11T01:31:55.945Z,0.00
2023-03-11T01:32:55.953Z,0.00
2023-03-11T01:33:55.962Z,0.00
2023-03-11T01:34:55.968Z,0.00
2023-03-11T01:35:56.027Z,0.00
2023-03-11T01:36:55.977Z,0.00
2023-03-11T01:37:55.993Z,0.00
2023-03-11T01:38:55.997Z,0.00
2023-03-11T01:39:55.997Z,0.00
2023-03-11T01:40:56.002Z,0.00
2023-03-11T01:41:56.010Z,0.00
2023-03-11T01:42:56.015Z,0.00
2023-03-11T01:43:56.020Z,0.00
2023-03-11T01:44:56.025Z,0.00
2023-03-11T01:45:56.034Z,0.00
2023-03-11T01:46:56.041Z,0.00
2023-03-11T01:47:56.049Z,0.00
2023-03-11T01:48:56.052Z,0.00
2023-03-11T01:49:56.063Z,0.00
2023-03-11T01:50:56.065Z,0.00
2023-03-11T01:51:56.068Z,0.00
2023-03-11T01:52:56.075Z,0.00
2023-03-11T01:53:56.086Z,0.00
2023-03-11T01:54:56.089Z,0.00
2023-03-11T01:55:56.102Z,0.00
2023-03-11T01:56:56.132Z,0.00
2023-03-11T01:57:56.108Z,0.00
2023-03-11T01:58:56.115Z,0.00
2023-03-11T01:59:56.122Z,0.00
2023-03-11T02:00:56.127Z,0.00
2023-03-11T02:01:56.179Z,0.00
2023-03-11T02:02:56.206Z,0.00
2023-03-11T02:03:56.147Z,0.00
2023-03-11T02:04:56.151Z,0.00
2023-03-11T02:05:56.157Z,0.00
2023-03-11T02:06:56.168Z,0.00
2023-03-11T02:07:56.171Z,0.00
2023-03-11T02:08:56.179Z,0.00
2023-03-11T02:09:56.185Z,0.00
2023-03-11T02:10:56.189Z,0.00
2023-03-11T02:11:56.214Z,0.00
2023-03-11T02:12:56.203Z,0.00
2023-03-11T02:13:56.230Z,0.00
2023-03-11T02:14:56.217Z,0.00
2023-03-11T02:15:56.274Z,0.00
2023-03-11T02:16:56.235Z,0.00
2023-03-11T02:17:56.236Z,0.00
2023-03-11T02:18:56.246Z,0.00
2023-03-11T02:19:56.251Z,0.00
2023-03-11T02:20:56.253Z,0.00
2023-03-11T02:21:56.266Z,0.00
2023-03-11T02:22:56.273Z,0.00
2023-03-11T02:23:56.276Z,0.00
2023-03-11T02:24:56.282Z,0.00
2023-03-11T02:25:56.299Z,0.00
2023-03-11T02:26:56.299Z,0.00
2023-03-11T02:27:56.302Z,0.00
2023-03-11T02:28:56.307Z,0.00
2023-03-11T02:29:56.313Z,0.00
2023-03-11T02:30:56.325Z,0.00
2023-03-11T02:31:56.328Z,0.00
2023-03-11T02:32:56.338Z,0.00
2023-03-11T02:33:56.346Z,0.00
2023-03-11T02:34:56.346Z,0.00
2023-03-11T02:35:56.363Z,0.00
2023-03-11T02:36:56.365Z,0.00
2023-03-11T02:37:56.364Z,0.00
2023-03-11T02:38:56.389Z,0.00
2023-03-11T02:39:56.378Z,0.00
2023-03-11T02:40:56.385Z,0.00
2023-03-11T02:41:56.391Z,0.00
2023-03-11T02:42:56.403Z,0.00
2023-03-11T02:43:56.405Z,0.00
2023-03-11T02:44:56.409Z,0.00
2023-03-11T02:45:56.414Z,0.00
2023-03-11T02:46:56.475Z,0.00
2023-03-11T02:47:56.435Z,0.00
2023-03-11T02:48:56.438Z,0.00
2023-03-11T02:49:56.436Z,0.00
2023-03-11T02:50:56.442Z,0.00
2023-03-11T02:51:56.449Z,0.00
2023-03-11T02:52:56.461Z,0.00
2023-03-11T02:53:56.463Z,0.00
2023-03-11T02:54:56.466Z,0.00
2023-03-11T02:55:56.473Z,0.00
2023-03-11T02:56:56.482Z,0.00
2023-03-11T02:57:56.482Z,0.00
2023-03-11T02:58:56.491Z,0.00
2023-03-11T02:59:56.500Z,0.00
2023-03-11T03:00:56.507Z,0.00
2023-03-11T03:01:56.519Z,0.00
2023-03-11T03:02:56.515Z,0.00
2023-03-11T03:03:56.569Z,0.00
2023-03-11T03:04:56.524Z,0.00
2023-03-11T03:05:56.533Z,0.00
2023-03-11T03:06:56.546Z,0.00
2023-03-11T03:07:56.546Z,0.00
2023-03-11T03:08:56.559Z,0.00
2023-03-11T03:09:56.559Z,0.00
2023-03-11T03:10:56.564Z,0.00
2023-03-11T03:11:56.591Z,0.00
2023-03-11T03:12:56.583Z,0.00
2023-03-11T03:13:56.581Z,0.00
2023-03-11T03:14:56.589Z,0.00
2023-03-11T03:15:56.594Z,0.00
2023-03-11T03:16:56.648Z,0.00
2023-03-11T03:17:56.605Z,0.00
2023-03-11T03:18:56.615Z,0.00
2023-03-11T03:19:56.621Z,0.00
2023-03-11T03:20:56.625Z,0.00
2023-03-11T03:21:56.634Z,0.00
2023-03-11T03:22:56.651Z,0.00
2023-03-11T03:23:56.647Z,0.00
2023-03-11T03:24:56.651Z,0.00
2023-03-11T03:25:56.658Z,0.00
2023-03-11T03:26:56.665Z,0.00
2023-03-11T03:27:56.686Z,0.00
2023-03-11T03:28:56.683Z,0.00
2023-03-11T03:29:56.684Z,0.00
2023-03-11T03:30:56.690Z,0.00
2023-03-11T03:31:56.796Z,0.00
2023-03-11T03:32:56.706Z,0.00
2023-03-11T03:33:56.711Z,0.00
2023-03-11T03:34:56.716Z,0.00
2023-03-11T03:35:56.766Z,0.00
2023-03-11T03:36:56.741Z,0.00
2023-03-11T03:37:56.735Z,0.00
2023-03-11T03:38:56.739Z,0.00
2023-03-11T03:39:56.751Z,0.00
2023-03-11T03:40:56.753Z,0.00
2023-03-11T03:41:56.760Z,0.00
2023-03-11T03:42:56.772Z,0.00
2023-03-11T03:43:56.779Z,0.00
2023-03-11T03:44:56.781Z,0.00
2023-03-11T03:45:56.816Z,0.00
2023-03-11T03:46:56.792Z,0.00
2023-03-11T03:47:56.815Z,0.00
2023-03-11T03:48:56.803Z,0.00
2023-03-11T03:49:56.815Z,0.00
2023-03-11T03:50:56.821Z,0.00
2023-03-11T03:51:56.825Z,0.00
2023-03-11T03:52:56.832Z,0.00
2023-03-11T03:53:56.837Z,0.00
2023-03-11T03:54:56.857Z,0.00
2023-03-11T03:55:56.852Z,0.00
2023-03-11T03:56:56.857Z,0.00
2023-03-11T03:57:56.869Z,0.00
2023-03-11T03:58:56.872Z,0.00
2023-03-11T03:59:56.879Z,0.00
2023-03-11T04:00:56.883Z,0.00
2023-03-11T04:01:56.929Z,0.00
2023-03-11T04:02:56.993Z,0.00
2023-03-11T04:03:56.904Z,0.00
2023-03-11T04:04:56.909Z,0.00
2023-03-11T04:05:56.919Z,0.00
2023-03-11T04:06:56.933Z,0.00
2023-03-11T04:07:56.931Z,0.00
2023-03-11T04:08:56.940Z,0.00
2023-03-11T04:09:56.942Z,0.00
2023-03-11T04:10:56.958Z,0.00
2023-03-11T04:11:56.959Z,0.00
2023-03-11T04:12:56.963Z,0.00
2023-03-11T04:13:56.976Z,0.00
2023-03-11T04:14:56.979Z,0.00
2023-03-11T04:15:56.983Z,0.00
2023-03-11T04:16:57.046Z,0.00
2023-03-11T04:17:56.995Z,0.00
2023-03-11T04:18:57.017Z,0.00
2023-03-11T04:19:57.010Z,0.00
2023-03-11T04:20:57.021Z,0.00
2023-03-11T04:21:57.023Z,0.00
2023-03-11T04:22:57.028Z,0.00
2023-03-11T04:23:57.044Z,0.00
2023-03-11T04:24:57.040Z,0.00
2023-03-11T04:25:57.062Z,0.00
2023-03-11T04:26:57.054Z,0.00
2023-03-11T04:27:57.077Z,0.00
2023-03-11T04:28:57.070Z,0.00
2023-03-11T04:29:57.068Z,0.00
2023-03-11T04:30:57.102Z,0.00
2023-03-11T04:31:57.088Z,0.00
2023-03-11T04:32:57.089Z,0.00
2023-03-11T04:33:57.092Z,0.00
2023-03-11T04:34:57.105Z,0.00
2023-03-11T04:35:57.146Z,0.00
2023-03-11T04:36:57.125Z,0.00
2023-03-11T04:37:57.117Z,0.00
2023-03-11T04:38:57.125Z,0.00
2023-03-11T04:39:57.137Z,0.00
2023-03-11T04:40:57.138Z,0.00
2023-03-11T04:41:57.142Z,0.00
2023-03-11T04:42:57.148Z,0.00
2023-03-11T04:43:57.156Z,0.00
2023-03-11T04:44:57.162Z,0.00
2023-03-11T04:45:57.196Z,0.00
2023-03-11T04:46:57.181Z,0.00
2023-03-11T04:47:57.187Z,0.00
2023-03-11T04:48:57.189Z,0.00
2023-03-11T04:49:57.200Z,0.00
2023-03-11T04:50:57.206Z,0.00
2023-03-11T04:51:57.212Z,0.00
2023-03-11T04:52:57.219Z,0.00
2023-03-11T04:53:57.224Z,0.00
2023-03-11T04:54:57.227Z,0.00
2023-03-11T04:55:57.231Z,0.00
2023-03-11T04:56:57.237Z,0.00
2023-03-11T04:57:57.245Z,0.00
2023-03-11T04:58:57.253Z,0.00
2023-03-11T04:59:57.262Z,0.00
2023-03-11T05:00:57.264Z,0.00
2023-03-11T05:01:57.273Z,0.00
2023-03-11T05:02:57.318Z,4.00
2023-03-11T05:03:57.289Z,4.00
2023-03-11T05:04:57.330Z,4.00
2023-03-11T05:05:57.298Z,0.00
2023-03-11T05:06:57.305Z,4.00
2023-03-11T05:07:57.309Z,4.00
2023-03-11T05:08:57.340Z,8.00
2023-03-11T05:09:57.325Z,8.00
2023-03-11T05:10:57.329Z,8.00
2023-03-11T05:11:57.337Z,8.00
2023-03-11T05:12:57.349Z,12.00
2023-03-11T05:13:57.364Z,12.00
2023-03-11T05:14:57.364Z,20.00
2023-03-11T05:15:57.382Z,20.00
2023-03-11T05:16:57.366Z,24.00
2023-03-11T05:17:57.375Z,32.00
2023-03-11T05:18:57.381Z,36.00
2023-03-11T05:19:57.393Z,40.00
2023-03-11T05:20:57.396Z,48.00
2023-03-11T05:21:57.407Z,48.00
2023-03-11T05:22:57.409Z,56.00
2023-03-11T05:23:57.414Z,60.00
2023-03-11T05:24:57.419Z,80.00
2023-03-11T05:25:57.423Z,84.00
2023-03-11T05:26:57.438Z,80.00
2023-03-11T05:27:57.449Z,92.00
2023-03-11T05:28:57.446Z,116.00
2023-03-11T05:29:57.455Z,132.00
2023-03-11T05:30:57.480Z,124.00
2023-03-11T05:31:57.467Z,176.00
2023-03-11T05:32:57.543Z,208.00
2023-03-11T05:33:57.480Z,228.00
2023-03-11T05:34:57.496Z,236.00
2023-03-11T05:35:57.538Z,300.00
2023-03-11T05:36:57.506Z,328.00
2023-03-11T05:37:57.508Z,344.00
2023-03-11T05:38:57.514Z,384.00
2023-03-11T05:39:57.521Z,412.00
2023-03-11T05:40:57.530Z,436.00
2023-03-11T05:41:57.535Z,508.00
2023-03-11T05:42:57.542Z,528.00
2023-03-11T05:43:57.548Z,564.00
2023-03-11T05:44:57.554Z,608.00
2023-03-11T05:45:57.560Z,664.00
2023-03-11T05:46:57.590Z,640.00
2023-03-11T05:47:57.574Z,712.00
2023-03-11T05:48:57.581Z,760.00
2023-03-11T05:49:57.590Z,828.00
2023-03-11T05:50:57.602Z,868.00
2023-03-11T05:51:58.733Z,988.00
2023-03-11T05:52:57.609Z,908.00
2023-03-11T05:53:57.622Z,1164.00
2023-03-11T05:54:57.620Z,1272.00
2023-03-11T05:55:57.636Z,1284.00
2023-03-11T05:56:57.654Z,1176.00
2023-03-11T05:57:57.652Z,1108.00
2023-03-11T05:58:57.645Z,952.00
2023-03-11T05:59:57.659Z,1112.00
2023-03-11T06:00:57.660Z,1108.00
2023-03-11T06:01:57.675Z,1020.00
2023-03-11T06:02:57.692Z,1124.00
2023-03-11T06:03:57.748Z,980.00
2023-03-11T06:04:57.854Z,1072.00
2023-03-11T06:05:57.725Z,1000.00
2023-03-11T06:06:57.704Z,952.00
2023-03-11T06:07:57.709Z,796.00
2023-03-11T06:08:57.710Z,760.00
2023-03-11T06:09:57.724Z,864.00
2023-03-11T06:10:57.736Z,900.00
2023-03-11T06:11:57.750Z,804.00
2023-03-11T06:12:57.748Z,980.00
2023-03-11T06:13:57.751Z,1056.00
2023-03-11T06:14:57.751Z,1112.00
2023-03-11T06:15:57.777Z,980.00
2023-03-11T06:16:57.766Z,952.00
2023-03-11T06:17:57.813Z,876.00
2023-03-11T06:18:57.776Z,848.00
2023-03-11T06:19:57.786Z,700.00
2023-03-11T06:20:57.789Z,836.00
2023-03-11T06:21:57.799Z,932.00
2023-03-11T06:22:57.804Z,1164.00
2023-03-11T06:23:57.814Z,1180.00
2023-03-11T06:24:57.819Z,1208.00
2023-03-11T06:25:57.828Z,1420.00
2023-03-11T06:26:57.832Z,1288.00
2023-03-11T06:27:57.838Z,1456.00
2023-03-11T06:28:57.849Z,1712.00
2023-03-11T06:29:57.850Z,2156.00
2023-03-11T06:30:57.859Z,1856.00
2023-03-11T06:31:57.925Z,1732.00
2023-03-11T06:32:57.921Z,1740.00
2023-03-11T06:33:57.877Z,2380.00
2023-03-11T06:34:57.888Z,2128.00
2023-03-11T06:35:57.900Z,2124.00
2023-03-11T06:36:57.897Z,2260.00
2023-03-11T06:37:57.906Z,2496.00
2023-03-11T06:38:57.916Z,2324.00
2023-03-11T06:39:57.919Z,2252.00
2023-03-11T06:40:57.925Z,2764.00
2023-03-11T06:41:57.934Z,2540.00
2023-03-11T06:42:57.956Z,2716.00
2023-03-11T06:43:57.949Z,2628.00
2023-03-11T06:44:57.950Z,2448.00
2023-03-11T06:45:57.994Z,2516.00
2023-03-11T06:46:57.965Z,2748.00
2023-03-11T06:47:57.981Z,3100.00
2023-03-11T06:48:57.999Z,2484.00
2023-03-11T06:49:57.987Z,2712.00
2023-03-11T06:50:57.994Z,2052.00
2023-03-11T06:51:58.005Z,1852.00
2023-03-11T06:52:58.011Z,1920.00
2023-03-11T06:53:58.013Z,1976.00
2023-03-11T06:54:58.021Z,2300.00
2023-03-11T06:55:58.028Z,1840.00
2023-03-11T06:56:58.036Z,1452.00
2023-03-11T06:57:58.042Z,1956.00
2023-03-11T06:58:58.048Z,2272.00
2023-03-11T06:59:58.056Z,3600.00
2023-03-11T07:00:58.087Z,3312.00
2023-03-11T07:01:58.074Z,2580.00
2023-03-11T07:02:58.081Z,1872.00
2023-03-11T07:03:58.142Z,1856.00
2023-03-11T07:04:58.090Z,2552.00
2023-03-11T07:05:58.126Z,2456.00
2023-03-11T07:06:58.111Z,3340.00
2023-03-11T07:07:58.118Z,3880.00
2023-03-11T07:08:58.121Z,4192.00
2023-03-11T07:09:58.137Z,4104.00
2023-03-11T07:10:58.135Z,5160.00
2023-03-11T07:11:58.148Z,5604.00
2023-03-11T07:12:58.144Z,5288.00
2023-03-11T07:13:58.155Z,5312.00
2023-03-11T07:14:58.166Z,4540.00
2023-03-11T07:15:58.172Z,4580.00
2023-03-11T07:16:58.248Z,4740.00
2023-03-11T07:17:58.187Z,4532.00
2023-03-11T07:18:58.189Z,4356.00
2023-03-11T07:19:58.197Z,4076.00
2023-03-11T07:20:58.210Z,4240.00
2023-03-11T07:21:58.229Z,2968.00
2023-03-11T07:22:58.227Z,2548.00
2023-03-11T07:23:58.227Z,2200.00
2023-03-11T07:24:58.232Z,3320.00
2023-03-11T07:25:58.241Z,4512.00
2023-03-11T07:26:58.249Z,5176.00
2023-03-11T07:27:58.255Z,5860.00
2023-03-11T07:28:58.269Z,5428.00
2023-03-11T07:29:58.280Z,6380.00
2023-03-11T07:30:58.274Z,8856.00
2023-03-11T07:31:58.338Z,6108.00
2023-03-11T07:32:58.364Z,6412.00
2023-03-11T07:33:58.297Z,7072.00
2023-03-11T07:34:58.303Z,7832.00
2023-03-11T07:35:58.341Z,9820.00
2023-03-11T07:36:58.325Z,7316.00
2023-03-11T07:37:58.324Z,6900.00
2023-03-11T07:38:58.360Z,5820.00
2023-03-11T07:39:58.342Z,5916.00
2023-03-11T07:40:58.343Z,6596.00
2023-03-11T07:41:58.352Z,6076.00
2023-03-11T07:42:58.363Z,7912.00
2023-03-11T07:43:58.365Z,8136.00
2023-03-11T07:44:58.374Z,9848.00
2023-03-11T07:45:58.409Z,10368.00
2023-03-11T07:46:58.385Z,10604.00
2023-03-11T07:47:58.397Z,11744.00
2023-03-11T07:48:58.401Z,10452.00
2023-03-11T07:49:58.413Z,8972.00
2023-03-11T07:50:58.418Z,12368.00
2023-03-11T07:51:58.423Z,12044.00
2023-03-11T07:52:58.431Z,8940.00
2023-03-11T07:53:58.444Z,10212.00
2023-03-11T07:54:58.449Z,7840.00
2023-03-11T07:55:58.454Z,13336.00
2023-03-11T07:56:58.461Z,12912.00
2023-03-11T07:57:58.470Z,11816.00
2023-03-11T07:58:58.494Z,7728.00
2023-03-11T07:59:58.484Z,12000.00
2023-03-11T08:00:58.497Z,8340.00
2023-03-11T08:01:58.499Z,9624.00
2023-03-11T08:02:58.513Z,7460.00
2023-03-11T08:03:58.555Z,8856.00
2023-03-11T08:04:58.522Z,10348.00
2023-03-11T08:05:58.537Z,12968.00
2023-03-11T08:06:58.549Z,11608.00
2023-03-11T08:07:58.548Z,12568.00
2023-03-11T08:08:58.553Z,8972.00
2023-03-11T08:09:58.564Z,12680.00
2023-03-11T08:10:58.572Z,12048.00
2023-03-11T08:11:58.585Z,16328.00
2023-03-11T08:12:58.588Z,14792.00
2023-03-11T08:13:58.606Z,13608.00
2023-03-11T08:14:58.601Z,13648.00
2023-03-11T08:15:58.654Z,14216.00
2023-03-11T08:16:58.628Z,12832.00
2023-03-11T08:17:58.627Z,10272.00
2023-03-11T08:18:58.636Z,10888.00
2023-03-11T08:19:58.641Z,12380.00
2023-03-11T08:20:58.649Z,9016.00
2023-03-11T08:21:58.661Z,12516.00
2023-03-11T08:22:58.726Z,17504.00
2023-03-11T08:23:58.678Z,10020.00
2023-03-11T08:24:58.683Z,12044.00
2023-03-11T08:25:58.690Z,12156.00
2023-03-11T08:26:58.713Z,10704.00
2023-03-11T08:27:58.709Z,10556.00
2023-03-11T08:28:58.713Z,11400.00
2023-03-11T08:29:58.724Z,13204.00
2023-03-11T08:30:58.746Z,12292.00
2023-03-11T08:31:58.743Z,10420.00
2023-03-11T08:32:58.756Z,8488.00
2023-03-11T08:33:58.790Z,11156.00
2023-03-11T08:34:58.766Z,15580.00
2023-03-11T08:35:58.844Z,13772.00
2023-03-11T08:36:58.781Z,12788.00
2023-03-11T08:37:58.792Z,14828.00
2023-03-11T08:38:58.872Z,14576.00
2023-03-11T08:39:58.808Z,11380.00
2023-03-11T08:40:58.815Z,12688.00
2023-03-11T08:41:58.830Z,9028.00
2023-03-11T08:42:58.835Z,14636.00
2023-03-11T08:43:58.855Z,14800.00
2023-03-11T08:44:58.850Z,12964.00
2023-03-11T08:45:58.919Z,16336.00
2023-03-11T08:46:58.869Z,13356.00
2023-03-11T08:47:58.878Z,12168.00
2023-03-11T08:49:00.885Z,9848.00
2023-03-11T08:49:58.893Z,11980.00
2023-03-11T08:50:58.901Z,13464.00
2023-03-11T08:51:58.911Z,15208.00
2023-03-11T08:52:58.919Z,9596.00
2023-03-11T08:53:58.928Z,6452.00
2023-03-11T08:54:58.936Z,8828.00
2023-03-11T08:55:58.942Z,12092.00
2023-03-11T08:56:58.952Z,13264.00
2023-03-11T08:57:58.963Z,14084.00
2023-03-11T08:58:58.973Z,12120.00
2023-03-11T08:59:58.979Z,9988.00
2023-03-11T09:00:58.986Z,14092.00
2023-03-11T09:01:58.997Z,12048.00
2023-03-11T09:02:59.057Z,13696.00
2023-03-11T09:03:59.021Z,10544.00
2023-03-11T09:04:59.023Z,11072.00
2023-03-11T09:05:59.075Z,11644.00
2023-03-11T09:06:59.040Z,9960.00
2023-03-11T09:07:59.051Z,12064.00
2023-03-11T09:08:59.065Z,13012.00
2023-03-11T09:09:59.067Z,11768.00
2023-03-11T09:10:59.078Z,16468.00
2023-03-11T09:11:59.087Z,13960.00
2023-03-11T09:12:59.097Z,13408.00
2023-03-11T09:13:59.106Z,10924.00
2023-03-11T09:14:59.111Z,7712.00
2023-03-11T09:15:59.126Z,7920.00
2023-03-11T09:16:59.131Z,9884.00
2023-03-11T09:17:59.137Z,12176.00
2023-03-11T09:18:59.172Z,12244.00
2023-03-11T09:19:59.184Z,12096.00
2023-03-11T09:20:59.206Z,13876.00
2023-03-11T09:21:59.182Z,18368.00
2023-03-11T09:22:59.185Z,19648.00
2023-03-11T09:23:59.223Z,21536.00
2023-03-11T09:24:59.215Z,24832.00
2023-03-11T09:25:59.213Z,28640.00
2023-03-11T09:26:59.233Z,20352.00
2023-03-11T09:27:59.240Z,17568.00
2023-03-11T09:28:59.277Z,17984.00
2023-03-11T09:29:59.273Z,22048.00
2023-03-11T09:30:59.255Z,20832.00
2023-03-11T09:31:59.275Z,22272.00
2023-03-11T09:32:59.278Z,13812.00
2023-03-11T09:33:59.320Z,8812.00
2023-03-11T09:34:59.295Z,7688.00
2023-03-11T09:35:59.406Z,6388.00
2023-03-11T09:36:59.312Z,7272.00
2023-03-11T09:37:59.336Z,9672.00
2023-03-11T09:38:59.339Z,14680.00
2023-03-11T09:39:59.367Z,13340.00
2023-03-11T09:40:59.354Z,9408.00
2023-03-11T09:41:59.527Z,13696.00
2023-03-11T09:42:59.379Z,11704.00
2023-03-11T09:43:59.386Z,9968.00
2023-03-11T09:44:59.394Z,11604.00
2023-03-11T09:45:59.402Z,11972.00
2023-03-11T09:46:59.434Z,12440.00
2023-03-11T09:47:59.426Z,14984.00
2023-03-11T09:48:59.435Z,15876.00
2023-03-11T09:49:59.439Z,17792.00
2023-03-11T09:50:59.452Z,17856.00
2023-03-11T09:51:59.458Z,14700.00
2023-03-11T09:52:59.465Z,14160.00
2023-03-11T09:53:59.479Z,14956.00
2023-03-11T09:54:59.493Z,14904.00
2023-03-11T09:55:59.496Z,13844.00
2023-03-11T09:56:59.509Z,13444.00
2023-03-11T09:57:59.526Z,12832.00
2023-03-11T09:58:59.546Z,11264.00
2023-03-11T09:59:59.533Z,7212.00
2023-03-11T10:00:59.549Z,7212.00
2023-03-11T10:01:59.609Z,8592.00
2023-03-11T10:02:59.581Z,6764.00
2023-03-11T10:03:59.591Z,5792.00
2023-03-11T10:04:59.585Z,4932.00
2023-03-11T10:05:59.596Z,4540.00
2023-03-11T10:06:59.603Z,3768.00
2023-03-11T10:07:59.608Z,4728.00
2023-03-11T10:08:59.618Z,3744.00
2023-03-11T10:09:59.624Z,3036.00
2023-03-11T10:10:59.634Z,3036.00
2023-03-11T10:11:59.646Z,2972.00
2023-03-11T10:12:59.653Z,3260.00
2023-03-11T10:13:59.663Z,4248.00
2023-03-11T10:14:59.674Z,5356.00
2023-03-11T10:15:59.776Z,5936.00
2023-03-11T10:16:59.686Z,5844.00
2023-03-11T10:17:59.696Z,4064.00
2023-03-11T10:18:59.704Z,4784.00
2023-03-11T10:19:59.711Z,7320.00
2023-03-11T10:20:59.732Z,8592.00
2023-03-11T10:21:59.729Z,10420.00
2023-03-11T10:22:59.739Z,12908.00
2023-03-11T10:23:59.746Z,12536.00
2023-03-11T10:24:59.753Z,9196.00
2023-03-11T10:25:59.773Z,9400.00
2023-03-11T10:26:59.783Z,11132.00
2023-03-11T10:27:59.781Z,11384.00
2023-03-11T10:28:59.789Z,11348.00
2023-03-11T10:29:59.802Z,10300.00
2023-03-11T10:30:59.805Z,11060.00
2023-03-11T10:31:59.873Z,14236.00
2023-03-11T10:32:59.824Z,11480.00
2023-03-11T10:33:59.828Z,12056.00
2023-03-11T10:34:59.838Z,13740.00
2023-03-11T10:35:59.896Z,18336.00
2023-03-11T10:36:59.855Z,16508.00
2023-03-11T10:37:59.865Z,18048.00
2023-03-11T10:38:59.872Z,18336.00
2023-03-11T10:39:59.881Z,18848.00
2023-03-11T10:40:59.888Z,16928.00
2023-03-11T10:41:59.900Z,19328.00
2023-03-11T10:42:59.906Z,17952.00
2023-03-11T10:43:59.917Z,21152.00
2023-03-11T10:44:59.922Z,20768.00
2023-03-11T10:46:00.028Z,18496.00
2023-03-11T10:46:59.949Z,21824.00
2023-03-11T10:47:59.960Z,22144.00
2023-03-11T10:48:59.970Z,21344.00
2023-03-11T10:49:59.970Z,19936.00
2023-03-11T10:50:59.979Z,19136.00
2023-03-11T10:51:59.994Z,15592.00
2023-03-11T10:52:59.999Z,20576.00
2023-03-11T10:54:00.011Z,22144.00
2023-03-11T10:55:00.019Z,25280.00
2023-03-11T10:56:00.041Z,27712.00
2023-03-11T10:57:00.057Z,22368.00
2023-03-11T10:58:00.054Z,15520.00
2023-03-11T10:59:00.072Z,13880.00
2023-03-11T11:00:00.098Z,16912.00
2023-03-11T11:01:00.108Z,15328.00
2023-03-11T11:02:00.127Z,14072.00
2023-03-11T11:03:00.133Z,18208.00
2023-03-11T11:04:00.153Z,15908.00
2023-03-11T11:05:00.119Z,15980.00
2023-03-11T11:06:00.129Z,18144.00
2023-03-11T11:07:00.142Z,15572.00
2023-03-11T11:08:00.151Z,11200.00
2023-03-11T11:09:00.166Z,13424.00
2023-03-11T11:10:00.174Z,13560.00
2023-03-11T11:11:00.196Z,11200.00
2023-03-11T11:12:00.199Z,12204.00
2023-03-11T11:13:00.203Z,11128.00
2023-03-11T11:14:00.224Z,11452.00
2023-03-11T11:15:00.233Z,11176.00
2023-03-11T11:16:00.265Z,9216.00
2023-03-11T11:17:00.306Z,9372.00
2023-03-11T11:18:00.258Z,9196.00
2023-03-11T11:19:00.263Z,12348.00
2023-03-11T11:20:00.273Z,14384.00
2023-03-11T11:21:00.284Z,18432.00
2023-03-11T11:22:00.294Z,19232.00
2023-03-11T11:23:00.305Z,16332.00
2023-03-11T11:24:00.315Z,14576.00
2023-03-11T11:25:00.367Z,16652.00
2023-03-11T11:26:00.333Z,14096.00
2023-03-11T11:27:00.343Z,13952.00
2023-03-11T11:28:00.361Z,14316.00
2023-03-11T11:29:00.366Z,11988.00
2023-03-11T11:30:00.376Z,14536.00
2023-03-11T11:31:00.481Z,14424.00
2023-03-11T11:32:00.394Z,13200.00
2023-03-11T11:33:00.401Z,14892.00
2023-03-11T11:34:00.415Z,16452.00
2023-03-11T11:35:00.423Z,14336.00
2023-03-11T11:36:00.432Z,14372.00
2023-03-11T11:37:00.446Z,14692.00
2023-03-11T11:38:00.450Z,17824.00
2023-03-11T11:39:00.460Z,18848.00
2023-03-11T11:40:00.471Z,19808.00
2023-03-11T11:41:00.478Z,19456.00
2023-03-11T11:42:00.492Z,21088.00
2023-03-11T11:43:00.514Z,20736.00
2023-03-11T11:44:00.512Z,15884.00
2023-03-11T11:45:00.524Z,17472.00
2023-03-11T11:46:00.537Z,12380.00
2023-03-11T11:47:00.545Z,16120.00
2023-03-11T11:48:00.552Z,14340.00
2023-03-11T11:49:00.557Z,10276.00
2023-03-11T11:50:00.570Z,13896.00
2023-03-11T11:51:00.588Z,14344.00
2023-03-11T11:52:00.591Z,18304.00
2023-03-11T11:53:00.602Z,19840.00
2023-03-11T11:54:00.612Z,16956.00
2023-03-11T11:55:00.620Z,13752.00
2023-03-11T11:56:00.637Z,13932.00
2023-03-11T11:57:00.641Z,12132.00
2023-03-11T11:58:00.662Z,11472.00
2023-03-11T11:59:00.660Z,10288.00
2023-03-11T12:00:00.671Z,9960.00
2023-03-11T12:01:00.694Z,9588.00
2023-03-11T12:02:00.694Z,10004.00
2023-03-11T12:03:00.705Z,8132.00
2023-03-11T12:04:00.741Z,9356.00
2023-03-11T12:05:00.724Z,7380.00
2023-03-11T12:06:00.852Z,7652.00
2023-03-11T12:07:00.753Z,8072.00
2023-03-11T12:08:00.758Z,8164.00
2023-03-11T12:09:00.773Z,8164.00
2023-03-11T12:10:09.848Z,9392.00
2023-03-11T12:11:00.787Z,8976.00
2023-03-11T12:12:00.795Z,9720.00
2023-03-11T12:13:00.803Z,8544.00
2023-03-11T12:14:00.815Z,10008.00
2023-03-11T12:15:00.821Z,13208.00
2023-03-11T12:16:00.921Z,18944.00
2023-03-11T12:17:01.979Z,21824.00
2023-03-11T12:18:00.851Z,19520.00
2023-03-11T12:19:00.898Z,18976.00
2023-03-11T12:20:00.869Z,19648.00
2023-03-11T12:21:00.879Z,19616.00
2023-03-11T12:22:00.889Z,21728.00
2023-03-11T12:23:00.899Z,16240.00
2023-03-11T12:24:00.910Z,16144.00
2023-03-11T12:25:00.919Z,19424.00
2023-03-11T12:26:00.952Z,18528.00
2023-03-11T12:27:00.939Z,12008.00
2023-03-11T12:28:00.962Z,14148.00
2023-03-11T12:29:00.963Z,15204.00
2023-03-11T12:30:00.977Z,17504.00